aviador You're here:

K1P1 Decoded Metar

PLYMOUTH in NH, USA
Report Time2017-08-21 23:55:00
UTC Time2017-08-21 23:55:01
Flight Rules vfr VFR
WindCalm
Visibility9999 m
Phenomena:N/A
Clouds:N/A
Expected CloudBase > 1,200 ft AGL from Temp-Dew spread
CeilingNone
Temp21°C (ISA +7)
Dew Point18°C (83% RH)
QNH1018 hPa
Density Alt1,430 ft
Elevation505 ft
Report Wrong Elevation
Raw Report
METAR K1P1 212355Z AUTO 00000KT 10SM CLR 21/18 A3006 RMK AO2
T02050178 10282 20205=

Extra information for K1P1:More info

Metar Taf Metar & Taf Last 4 Metars F.Rules Stats Wind Profile Meteogram Temp Stats Airport Information Weather charts Add Link Nearby VenuesMetar ALERT Operation Metar Decoded Social comments

AIRNAV info for K1P1